Time;durP1;ratioP1;P1;durP2;ratioP2;P2;SDS_P1;SDS_P2;PMS_P1;PMS_P2;Temp;Humidity;BMP_temperature;BMP_pressure;BME280_temperature;BME280_humidity;BME280_pressure;Samples;Min_cycle;Max_cycle;Signal;HPM_P1;HPM_P2
2023/05/09 00:01:10;;;;;;;;;3.00;3.00;;;;;21.40;47.92;101308.91;4997681;28;45527;-40
2023/05/09 00:03:36;;;;;;;;;3.50;2.75;;;;;21.41;48.14;101312.44;4998105;28;45273;-40
2023/05/09 00:06:01;;;;;;;;;6.00;3.00;;;;;21.39;48.06;101299.28;4997195;28;64691;-40
2023/05/09 00:08:27;;;;;;;;;4.00;2.00;;;;;21.40;48.09;101301.00;4997684;28;45406;-40
2023/05/09 00:10:52;;;;;;;;;1.75;1.75;;;;;21.41;48.18;101304.50;4997701;28;45518;-40
2023/05/09 00:13:18;;;;;;;;;3.00;3.00;;;;;21.41;48.00;101307.16;4997829;28;45368;-40
2023/05/09 00:15:43;;;;;;;;;3.00;3.00;;;;;21.41;47.96;101296.59;4997409;28;46556;-40
2023/05/09 00:18:08;;;;;;;;;2.50;2.50;;;;;21.38;47.64;101287.06;4997518;28;45316;-40
2023/05/09 00:20:34;;;;;;;;;3.33;2.00;;;;;21.39;47.72;101280.84;4997222;28;61334;-40
2023/05/09 00:23:00;;;;;;;;;3.50;2.00;;;;;21.40;48.11;101276.44;4997688;28;45265;-40
2023/05/09 00:25:25;;;;;;;;;2.50;2.00;;;;;21.40;47.82;101271.16;4996913;28;50795;-39
2023/05/09 00:27:50;;;;;;;;;2.25;2.25;;;;;21.39;47.99;101267.66;4997215;28;51767;-40
2023/05/09 00:30:15;;;;;;;;;2.67;2.00;;;;;21.40;47.94;101263.25;4996792;28;56202;-40
2023/05/09 00:32:41;;;;;;;;;3.00;3.00;;;;;21.40;48.05;101260.63;4997891;28;45165;-40
2023/05/09 00:35:07;;;;;;;;;2.00;2.00;;;;;21.40;47.96;101263.25;4997129;28;45290;-41
2023/05/09 00:37:33;;;;;;;;;3.00;3.00;;;;;21.40;47.72;101260.63;4997407;28;45842;-40
2023/05/09 00:39:58;;;;;;;;;2.50;2.50;;;;;21.40;47.90;101265.88;4996795;28;53722;-40
2023/05/09 00:42:23;;;;;;;;;2.25;2.25;;;;;21.39;47.65;101262.38;4996078;28;45339;-40
2023/05/09 00:44:49;;;;;;;;;5.00;3.00;;;;;21.39;47.57;101256.28;4996933;28;45328;-41
2023/05/09 00:47:14;;;;;;;;;2.75;2.75;;;;;21.39;47.76;101251.00;4997050;28;45410;-40
2023/05/09 00:49:39;;;;;;;;;3.00;3.00;;;;;21.39;47.90;101251.00;4997139;28;45382;-40
2023/05/09 00:52:05;;;;;;;;;2.75;2.75;;;;;21.40;47.85;101252.72;4997493;28;45292;-39
2023/05/09 00:54:30;;;;;;;;;3.75;3.00;;;;;21.39;47.56;101246.56;4996831;28;46393;-40
2023/05/09 00:56:55;;;;;;;;;3.00;1.25;;;;;21.40;47.89;101244.78;4996890;28;45489;-40
2023/05/09 00:59:21;;;;;;;;;2.00;2.00;;;;;21.39;47.80;101229.91;4997178;28;45331;-41
2023/05/09 01:01:46;;;;;;;;;3.25;2.25;;;;;21.39;47.55;101224.63;4996847;28;45360;-40
2023/05/09 01:04:13;;;;;;;;;3.00;2.00;;;;;21.39;47.53;101228.09;4996428;28;46495;-40
2023/05/09 01:06:53;;;;;;;;;2.00;2.00;;;;;21.40;47.65;101229.81;4995540;28;45701;-40
2023/05/09 01:09:28;;;;;;;;;3.25;1.50;;;;;21.39;47.93;101220.19;4996394;28;45626;-39
2023/05/09 01:12:12;;;;;;;;;2.00;2.00;;;;;21.38;47.53;101225.56;4996671;28;45414;-40
2023/05/09 01:15:08;;;;;;;;;2.00;2.00;;;;;21.40;47.86;101221.06;4982023;28;46629;-40
2023/05/09 01:17:43;;;;;;;;;2.00;2.00;;;;;21.39;47.70;101214.09;4996965;28;45367;-40
2023/05/09 01:20:32;;;;;;;;;3.00;1.75;;;;;21.38;47.93;101207.97;4996778;28;45412;-41
2023/05/09 01:23:24;;;;;;;;;4.75;2.00;;;;;21.39;47.91;101208.81;4996455;28;45310;-40
2023/05/09 01:26:02;;;;;;;;;3.00;1.00;;;;;21.39;47.52;101208.81;4954335;28;45365;-40
2023/05/09 01:28:53;;;;;;;;;3.00;3.00;;;;;21.38;47.66;101204.47;4976753;28;45851;-40
2023/05/09 01:31:19;;;;;;;;;1.00;1.00;;;;;21.38;47.20;101196.56;4977079;28;45302;-40
2023/05/09 01:33:47;;;;;;;;;2.00;2.00;;;;;21.38;47.89;101186.88;4989551;28;45439;-40
2023/05/09 01:36:16;;;;;;;;;2.25;2.25;;;;;21.38;47.79;101186.00;4996267;28;46351;-40
2023/05/09 01:38:47;;;;;;;;;2.00;2.00;;;;;21.37;47.37;101189.56;4995955;28;45225;-40
2023/05/09 01:41:15;;;;;;;;;2.00;2.00;;;;;21.38;47.53;101184.25;4996612;28;45249;-39
2023/05/09 01:43:44;;;;;;;;;2.00;2.00;;;;;21.37;47.81;101179.91;4996391;28;45207;-41
2023/05/09 01:46:11;;;;;;;;;1.25;1.25;;;;;21.37;47.81;101181.66;4996041;28;46333;-40
2023/05/09 01:48:39;;;;;;;;;2.25;2.25;;;;;21.38;47.43;101178.09;4996409;28;45813;-40
2023/05/09 01:51:06;;;;;;;;;3.00;1.25;;;;;21.38;47.27;101178.09;4996416;28;45276;-40
2023/05/09 01:53:34;;;;;;;;;2.00;2.00;;;;;21.37;47.63;101174.63;4994926;28;45589;-39
2023/05/09 01:56:02;;;;;;;;;2.50;2.25;;;;;21.38;47.71;101180.72;4996119;28;45511;-39
2023/05/09 01:58:32;;;;;;;;;3.00;2.00;;;;;21.39;47.60;101179.81;4996091;28;45226;-39
2023/05/09 02:00:59;;;;;;;;;2.00;2.00;;;;;21.38;47.75;101175.47;4996219;28;45451;-41
2023/05/09 02:03:26;;;;;;;;;2.00;2.00;;;;;21.38;47.46;101176.34;4995804;28;45383;-39
2023/05/09 02:05:54;;;;;;;;;2.00;2.00;;;;;21.38;47.57;101170.19;4995958;28;45656;-40
2023/05/09 02:08:20;;;;;;;;;2.00;2.00;;;;;21.39;47.36;101169.25;4996064;28;45765;-40
2023/05/09 02:10:47;;;;;;;;;1.25;1.25;;;;;21.37;47.60;101163.22;4995901;28;45305;-40
2023/05/09 02:13:12;;;;;;;;;2.75;2.00;;;;;21.34;47.66;101155.47;4997827;28;45462;-40
2023/05/09 02:15:38;;;;;;;;;1.25;1.25;;;;;21.38;47.39;101168.41;4999567;28;45468;-40
2023/05/09 02:18:04;;;;;;;;;3.00;2.50;;;;;21.37;47.67;101157.94;4999391;28;45379;-39
2023/05/09 02:20:29;;;;;;;;;2.00;2.00;;;;;21.37;47.37;101164.09;4999051;28;45510;-40
2023/05/09 02:22:55;;;;;;;;;2.00;2.00;;;;;21.38;47.36;101160.50;4999616;28;45355;-40
2023/05/09 02:25:20;;;;;;;;;3.00;3.00;;;;;21.38;47.35;101162.28;4999093;28;45446;-40
2023/05/09 02:27:46;;;;;;;;;2.25;2.25;;;;;21.36;47.39;101150.97;4999154;28;45372;-40
2023/05/09 02:30:17;;;;;;;;;3.00;1.75;;;;;21.39;47.49;101166.63;4999290;28;45361;-39
2023/05/09 02:32:45;;;;;;;;;1.25;1.25;;;;;21.38;47.71;101165.78;4999149;28;45442;-39
2023/05/09 02:35:13;;;;;;;;;0.75;0.75;;;;;21.36;47.48;101157.09;4999002;28;45361;-40
2023/05/09 02:37:38;;;;;;;;;4.00;3.00;;;;;21.38;47.37;101154.38;4999424;28;45355;-39
2023/05/09 02:40:07;;;;;;;;;2.25;2.25;;;;;21.37;47.26;101158.81;4998843;28;45317;-39
2023/05/09 02:42:33;;;;;;;;;2.00;2.00;;;;;21.36;47.43;101146.56;4997984;28;45389;-39
2023/05/09 02:44:59;;;;;;;;;1.25;1.25;;;;;21.37;47.26;101150.03;4998513;28;45443;-39
2023/05/09 02:47:25;;;;;;;;;3.00;2.00;;;;;21.37;47.27;101152.66;4998957;28;45396;-39
2023/05/09 02:49:50;;;;;;;;;2.25;2.25;;;;;21.36;47.52;101146.56;4998960;28;45388;-42
2023/05/09 02:52:15;;;;;;;;;1.25;1.25;;;;;21.37;47.55;101152.66;4998399;28;45680;-40
2023/05/09 02:54:41;;;;;;;;;1.25;1.25;;;;;21.37;47.40;101142.13;4998834;28;54957;-40
2023/05/09 02:57:06;;;;;;;;;2.00;2.00;;;;;21.38;47.38;101149.09;4998768;28;45351;-41
2023/05/09 02:59:32;;;;;;;;;2.00;1.00;;;;;21.38;47.38;101143.81;4998494;28;47810;-41
2023/05/09 03:01:57;;;;;;;;;3.00;1.75;;;;;21.37;47.50;101137.72;4998584;28;45523;-39
2023/05/09 03:04:24;;;;;;;;;2.00;2.00;;;;;21.38;47.47;101133.28;4997875;28;66317;-40
2023/05/09 03:06:49;;;;;;;;;1.50;1.50;;;;;21.37;47.46;101136.84;4998273;28;45332;-40
2023/05/09 03:09:15;;;;;;;;;2.00;2.00;;;;;21.37;47.48;101128.94;4997728;28;45265;-40
2023/05/09 03:11:40;;;;;;;;;3.25;2.50;;;;;21.37;47.45;101134.22;4998666;28;45240;-40
2023/05/09 03:14:07;;;;;;;;;2.00;2.00;;;;;21.36;47.40;101129.88;4998358;28;46124;-40
2023/05/09 03:16:32;;;;;;;;;2.00;2.00;;;;;21.36;47.58;101135.13;4998003;28;46144;-40
2023/05/09 03:18:58;;;;;;;;;1.00;1.00;;;;;21.37;47.36;101127.16;4998655;28;45340;-40
2023/05/09 03:21:23;;;;;;;;;2.00;2.00;;;;;21.37;47.43;101126.28;4997588;28;60123;-40
2023/05/09 03:23:48;;;;;;;;;1.00;1.00;;;;;21.36;47.55;101119.31;4997080;28;46282;-40
2023/05/09 03:26:14;;;;;;;;;3.00;2.00;;;;;21.38;47.31;101128.00;4998463;28;45458;-39
2023/05/09 03:28:39;;;;;;;;;1.67;1.00;;;;;21.37;47.43;101121.03;4997780;28;56848;-39
2023/05/09 03:31:05;;;;;;;;;2.00;2.00;;;;;21.37;47.11;101121.03;4998110;28;45620;-39
2023/05/09 03:33:30;;;;;;;;;1.50;1.50;;;;;21.36;47.47;101120.19;4998104;28;46108;-40
2023/05/09 03:35:55;;;;;;;;;2.00;2.00;;;;;21.36;47.19;101119.31;4997762;28;56936;-39
2023/05/09 03:38:23;;;;;;;;;2.00;2.00;;;;;21.36;47.44;101119.31;4997973;28;45718;-40
2023/05/09 03:40:49;;;;;;;;;1.75;1.75;;;;;21.35;47.48;101114.97;4997871;28;45382;-39
2023/05/09 03:43:14;;;;;;;;;2.00;2.00;;;;;21.36;47.45;101111.41;4998259;28;46204;-39
2023/05/09 03:45:39;;;;;;;;;2.50;2.00;;;;;21.36;47.26;101109.63;4997897;28;45364;-39
2023/05/09 03:48:08;;;;;;;;;1.25;1.25;;;;;21.36;47.44;101108.78;4997804;28;51819;-39
2023/05/09 03:50:36;;;;;;;;;1.00;1.00;;;;;21.36;46.36;101108.78;4997927;28;45364;-40
2023/05/09 03:53:02;;;;;;;;;2.75;2.75;;;;;21.36;47.29;101108.78;4997656;28;46114;-41
2023/05/09 03:55:28;;;;;;;;;1.00;1.00;;;;;21.35;47.26;101102.66;4996611;28;45753;-41
2023/05/09 03:57:53;;;;;;;;;3.25;1.75;;;;;21.36;47.32;101099.09;4997849;28;45399;-40
2023/05/09 04:00:20;;;;;;;;;1.75;1.50;;;;;21.36;47.32;101095.59;4997668;28;45296;-41
2023/05/09 04:02:46;;;;;;;;;1.75;1.25;;;;;21.36;47.31;101103.50;4997991;28;46382;-41
2023/05/09 04:05:12;;;;;;;;;3.00;2.00;;;;;21.36;47.65;101100.88;4997643;28;45317;-40
2023/05/09 04:07:37;;;;;;;;;1.00;1.00;;;;;21.35;47.35;101091.25;4997580;28;45356;-41
2023/05/09 04:10:03;;;;;;;;;1.25;1.25;;;;;21.37;47.21;101099.94;4997681;28;45471;-41
2023/05/09 04:12:28;;;;;;;;;1.25;1.25;;;;;21.35;47.13;101094.75;4997518;28;47282;-41
2023/05/09 04:14:53;;;;;;;;;1.00;1.00;;;;;21.36;47.47;101095.59;4997146;28;53832;-40
2023/05/09 04:17:19;;;;;;;;;2.00;2.00;;;;;21.35;47.49;101096.53;4995647;28;61100;-43
2023/05/09 04:19:44;;;;;;;;;2.00;2.00;;;;;21.35;47.30;101092.13;4996023;28;45522;-41
2023/05/09 04:22:09;;;;;;;;;0.50;0.50;;;;;21.35;47.48;101089.47;4997238;28;46227;-41
2023/05/09 04:24:35;;;;;;;;;1.00;1.00;;;;;21.33;47.76;101085.25;4997413;28;45322;-42
2023/05/09 04:27:00;;;;;;;;;2.25;2.00;;;;;21.35;47.64;101092.13;4997203;28;45302;-42
2023/05/09 04:29:26;;;;;;;;;1.00;1.00;;;;;21.37;47.57;101092.03;4997646;28;45313;-41
2023/05/09 04:31:51;;;;;;;;;2.50;1.75;;;;;21.36;47.54;101090.31;4997082;28;45450;-42
2023/05/09 04:34:17;;;;;;;;;2.00;2.00;;;;;21.36;47.45;101079.78;4997583;28;45336;-42
2023/05/09 04:36:43;;;;;;;;;1.00;1.00;;;;;21.37;47.63;101081.47;4996973;28;45415;-41
2023/05/09 04:39:09;;;;;;;;;1.00;1.00;;;;;21.35;47.32;101075.44;4997528;28;45337;-42
2023/05/09 04:41:34;;;;;;;;;1.50;1.50;;;;;21.34;47.45;101071.97;4997061;28;46287;-41
2023/05/09 04:44:00;;;;;;;;;1.00;1.00;;;;;21.33;47.27;101061.50;4997172;28;45217;-41
2023/05/09 04:46:26;;;;;;;;;0.25;0.25;;;;;21.31;47.20;101065.06;4997151;28;45274;-41
2023/05/09 04:48:52;;;;;;;;;2.00;1.00;;;;;21.30;46.57;101058.09;4997309;28;45638;-41
2023/05/09 04:51:17;;;;;;;;;1.00;1.00;;;;;21.29;46.90;101061.66;4997345;28;45652;-41
2023/05/09 04:53:43;;;;;;;;;1.00;1.00;;;;;21.28;46.81;101059.97;4995738;28;45462;-42
2023/05/09 04:56:09;;;;;;;;;1.25;1.25;;;;;21.27;46.89;101066.16;4995440;28;45376;-44
2023/05/09 04:58:37;;;;;;;;;0.50;0.50;;;;;21.25;46.72;101060.13;4995630;28;45454;-42
2023/05/09 05:01:03;;;;;;;;;0.75;0.75;;;;;21.25;46.49;101054.00;4995423;28;46342;-42
2023/05/09 05:03:28;;;;;;;;;1.00;1.00;;;;;21.24;46.52;101058.41;4995435;28;45294;-41
2023/05/09 05:05:53;;;;;;;;;3.00;0.75;;;;;21.23;46.79;101051.44;4995166;28;48537;-41
2023/05/09 05:08:19;;;;;;;;;1.00;1.00;;;;;21.22;46.67;101048.91;4995314;28;54951;-39
2023/05/09 05:10:44;;;;;;;;;1.00;1.00;;;;;21.23;47.01;101043.53;4995077;28;46524;-39
2023/05/09 05:13:09;;;;;;;;;0.00;0.00;;;;;21.22;47.04;101041.81;4995391;28;45184;-39
2023/05/09 05:15:35;;;;;;;;;1.00;1.00;;;;;21.23;46.86;101038.25;4995391;28;45213;-42
2023/05/09 05:18:00;;;;;;;;;1.00;1.00;;;;;21.24;47.24;101037.31;4994768;28;55710;-39
2023/05/09 05:20:25;;;;;;;;;2.00;2.00;;;;;21.25;47.53;101041.66;4995068;28;47326;-39
2023/05/09 05:22:50;;;;;;;;;1.00;1.00;;;;;21.23;47.52;101030.34;4994902;28;62342;-39
2023/05/09 05:25:17;;;;;;;;;2.00;1.00;;;;;21.25;47.43;101031.13;4994844;28;45855;-39
2023/05/09 05:27:42;;;;;;;;;0.50;0.50;;;;;21.26;47.54;101032.84;4995362;28;45348;-40
2023/05/09 05:30:08;;;;;;;;;1.00;1.00;;;;;21.25;47.60;101036.41;4995092;28;46148;-39
2023/05/09 05:32:33;;;;;;;;;1.25;0.50;;;;;21.27;47.73;101025.78;4994951;28;45347;-40
2023/05/09 05:35:01;;;;;;;;;1.00;1.00;;;;;21.27;47.69;101024.00;4995012;28;45414;-41
2023/05/09 05:37:26;;;;;;;;;0.75;0.75;;;;;21.27;47.60;101023.16;4995440;28;45397;-39
2023/05/09 05:39:52;;;;;;;;;2.50;1.00;;;;;21.27;47.69;101031.06;4995192;28;46655;-39
2023/05/09 05:42:17;;;;;;;;;1.00;1.00;;;;;21.28;47.72;101024.81;4995009;28;45265;-39
2023/05/09 05:44:42;;;;;;;;;1.00;1.00;;;;;21.27;48.04;101021.34;4993736;28;45403;-40
2023/05/09 05:47:07;;;;;;;;;1.00;1.00;;;;;21.28;47.84;101023.06;4995682;28;45356;-39
2023/05/09 05:49:33;;;;;;;;;1.00;1.00;;;;;21.27;48.12;101026.63;4998955;28;45670;-40
2023/05/09 05:51:58;;;;;;;;;1.00;1.00;;;;;21.27;48.30;101015.25;4958206;28;1146815;-39
2023/05/09 05:54:23;;;;;;;;;1.00;1.00;;;;;21.27;48.04;101007.34;4999987;28;45170;-40
2023/05/09 05:56:49;;;;;;;;;1.00;1.00;;;;;21.26;48.05;101009.09;4999369;28;57264;-41
2023/05/09 05:59:15;;;;;;;;;1.00;1.00;;;;;21.28;48.23;101012.50;4999505;28;46147;-40
2023/05/09 06:01:40;;;;;;;;;2.00;1.50;;;;;21.27;48.24;101010.81;4999645;28;45254;-40
2023/05/09 06:04:05;;;;;;;;;1.00;1.00;;;;;21.27;48.25;101007.34;4999655;28;45316;-41
2023/05/09 06:06:31;;;;;;;;;2.00;2.00;;;;;21.26;48.18;101000.34;4999569;28;45183;-41
2023/05/09 06:08:56;;;;;;;;;0.75;0.00;;;;;21.25;48.21;101001.28;4999074;28;46232;-40
2023/05/09 06:11:22;;;;;;;;;0.25;0.25;;;;;21.28;48.24;100998.47;4999807;28;45230;-41
2023/05/09 06:13:47;;;;;;;;;0.75;0.75;;;;;21.26;48.44;100993.28;4999566;28;45209;-40
2023/05/09 06:16:12;;;;;;;;;1.00;1.00;;;;;21.27;48.30;100991.53;4999251;28;50776;-40
2023/05/09 06:18:39;;;;;;;;;1.50;1.50;;;;;21.27;48.42;100992.34;4998907;28;57276;-40
2023/05/09 06:21:07;;;;;;;;;1.00;1.00;;;;;21.27;48.13;100989.72;4999348;28;45704;-40
2023/05/09 06:23:35;;;;;;;;;0.00;0.00;;;;;21.27;47.86;100980.97;4999573;28;45324;-40
2023/05/09 06:26:00;;;;;;;;;1.00;1.00;;;;;21.26;48.06;100982.75;4999570;28;45431;-40
2023/05/09 06:28:26;;;;;;;;;1.00;0.25;;;;;21.27;48.17;100989.72;5001808;28;46437;-39
2023/05/09 06:30:51;;;;;;;;;0.50;0.50;;;;;21.27;48.04;100978.34;4999455;28;45281;-41
2023/05/09 06:33:16;;;;;;;;;2.00;2.00;;;;;21.25;48.38;100973.13;4999433;28;46247;-46
2023/05/09 06:35:42;;;;;;;;;0.50;0.50;;;;;21.25;48.06;100975.78;4999478;28;45269;-39
2023/05/09 06:38:07;;;;;;;;;1.00;1.00;;;;;21.26;48.33;100968.72;4998316;28;65974;-39
2023/05/09 06:40:32;;;;;;;;;1.00;1.00;;;;;21.25;48.20;100967.84;4997675;28;46184;-39
2023/05/09 06:42:58;;;;;;;;;1.00;1.00;;;;;21.26;47.75;100960.81;4997805;28;45427;-39
2023/05/09 06:45:23;;;;;;;;;3.50;1.00;;;;;21.26;48.28;100963.47;4999434;28;45486;-39
2023/05/09 06:47:48;;;;;;;;;1.00;1.00;;;;;21.26;47.87;100964.28;4997633;28;47234;-39
2023/05/09 06:50:13;;;;;;;;;3.00;0.50;;;;;21.26;48.33;100966.94;4998509;28;54684;-40
2023/05/09 06:52:39;;;;;;;;;1.00;1.00;;;;;21.27;47.60;100963.34;4998166;28;54702;-39
2023/05/09 06:55:05;;;;;;;;;1.00;1.00;;;;;21.24;48.05;100952.97;4998618;28;45584;-40
2023/05/09 06:57:30;;;;;;;;;1.25;1.00;;;;;21.24;48.01;100960.88;4998659;28;46557;-39
2023/05/09 06:59:55;;;;;;;;;0.50;0.50;;;;;21.26;48.16;100960.81;4997425;28;45810;-40
2023/05/09 07:02:21;;;;;;;;;0.50;0.50;;;;;21.26;47.72;100953.75;4998869;28;45328;-39
2023/05/09 07:04:46;;;;;;;;;0.75;0.75;;;;;21.26;47.92;100951.13;4999010;28;45462;-39
2023/05/09 07:07:11;;;;;;;;;0.00;0.00;;;;;21.26;48.07;100950.28;4998445;28;46154;-39
2023/05/09 07:09:37;;;;;;;;;0.00;0.00;;;;;21.26;48.12;100939.72;4997885;28;61493;-39
2023/05/09 07:12:02;;;;;;;;;3.00;1.00;;;;;21.25;48.13;100938.03;4998634;28;45257;-39
2023/05/09 07:14:28;;;;;;;;;1.00;1.00;;;;;21.25;47.85;100936.22;4999338;28;45426;-40
2023/05/09 07:16:53;;;;;;;;;2.25;1.00;;;;;21.25;47.96;100932.75;4998152;28;54335;-40
2023/05/09 07:19:18;;;;;;;;;1.00;1.00;;;;;21.24;47.75;100923.97;4998503;28;45653;-40
2023/05/09 07:21:44;;;;;;;;;2.00;1.00;;;;;21.25;48.01;100922.22;4998715;28;45788;-39
2023/05/09 07:24:09;;;;;;;;;0.25;0.25;;;;;21.24;47.67;100916.06;4998564;28;45522;-39
2023/05/09 07:26:35;;;;;;;;;2.00;0.50;;;;;21.25;48.13;100909.03;4997552;28;64528;-39
2023/05/09 07:29:01;;;;;;;;;0.25;0.25;;;;;21.24;48.02;100907.34;4998334;28;45933;-39
2023/05/09 07:31:26;;;;;;;;;0.00;0.00;;;;;21.24;48.01;100902.91;4998824;28;45270;-39
2023/05/09 07:33:51;;;;;;;;;1.25;1.00;;;;;21.23;47.92;100901.19;4998474;28;45221;-41
2023/05/09 07:36:17;;;;;;;;;2.00;1.00;;;;;21.22;47.68;100902.13;4998107;28;46150;-39
2023/05/09 07:38:42;;;;;;;;;1.00;1.00;;;;;21.24;47.85;100894.97;4998055;28;45237;-40
2023/05/09 07:41:07;;;;;;;;;1.50;1.00;;;;;21.23;47.69;100889.81;4997820;28;53801;-40
2023/05/09 07:43:33;;;;;;;;;0.25;0.25;;;;;21.24;47.88;100899.41;4998184;28;45551;-40
2023/05/09 07:45:58;;;;;;;;;2.50;1.00;;;;;21.23;47.72;100895.91;4997854;28;51364;-40
2023/05/09 07:48:23;;;;;;;;;0.75;0.75;;;;;21.21;47.86;100884.66;4997942;28;45407;-40
2023/05/09 07:50:49;;;;;;;;;0.50;0.50;;;;;21.22;47.83;100880.22;4997947;28;45424;-41
2023/05/09 07:53:14;;;;;;;;;1.00;1.00;;;;;21.23;48.01;100882.75;4997923;28;45490;-40
2023/05/09 07:55:40;;;;;;;;;2.00;1.00;;;;;21.23;47.63;100882.75;4997825;28;45336;-39
2023/05/09 07:58:05;;;;;;;;;1.00;1.00;;;;;21.22;47.94;100875.75;4997738;28;45276;-40
2023/05/09 08:00:31;;;;;;;;;1.00;1.00;;;;;21.23;47.93;100882.75;4997343;28;63296;-42
2023/05/09 08:02:56;;;;;;;;;0.25;0.25;;;;;21.22;47.85;100880.22;4997002;28;45384;-39
2023/05/09 08:05:21;;;;;;;;;0.00;0.00;;;;;21.24;47.88;100881.81;4997053;28;64032;-39
2023/05/09 08:07:47;;;;;;;;;1.00;1.00;;;;;21.24;47.53;100873.91;4996441;28;45625;-39
2023/05/09 08:10:12;;;;;;;;;0.50;0.50;;;;;21.23;47.59;100871.38;4997127;28;45313;-38
2023/05/09 08:12:38;;;;;;;;;0.25;0.25;;;;;21.24;47.98;100867.78;4997878;28;45314;-38
2023/05/09 08:15:04;;;;;;;;;0.00;0.00;;;;;21.23;47.63;100866.94;4997439;28;46601;-38
2023/05/09 08:17:29;;;;;;;;;1.50;1.25;;;;;21.24;48.06;100862.53;4997874;28;45726;-39
2023/05/09 08:19:55;;;;;;;;;0.75;0.50;;;;;21.22;47.78;100854.69;4997594;28;45336;-39
2023/05/09 08:22:20;;;;;;;;;1.00;1.00;;;;;21.23;47.83;100860.81;4997633;28;45606;-40
2023/05/09 08:24:46;;;;;;;;;1.00;1.00;;;;;21.23;47.71;100856.38;4997239;28;46319;-38
2023/05/09 08:27:12;;;;;;;;;1.00;1.00;;;;;21.23;47.71;100856.38;4997292;28;45235;-39
2023/05/09 08:29:42;;;;;;;;;0.00;0.00;;;;;21.24;47.71;100852.81;4996249;28;45415;-39
2023/05/09 08:32:08;;;;;;;;;0.75;0.75;;;;;21.24;47.73;100842.28;4997540;28;45341;-40
2023/05/09 08:34:34;;;;;;;;;1.00;1.00;;;;;21.24;47.73;100842.28;4997371;28;45372;-40
2023/05/09 08:37:03;;;;;;;;;3.00;1.50;;;;;21.22;48.04;100838.03;4997472;28;45300;-38
2023/05/09 08:39:29;;;;;;;;;1.50;1.00;;;;;21.25;47.84;100837.88;4996441;28;45486;-39
2023/05/09 08:41:59;;;;;;;;;1.00;1.00;;;;;21.24;47.66;100837.00;4997549;28;45535;-40
2023/05/09 08:44:25;;;;;;;;;2.00;2.00;;;;;21.23;48.00;100830.03;4997013;28;46292;-39
2023/05/09 08:46:55;;;;;;;;;0.00;0.00;;;;;21.24;47.97;100823.81;4996986;28;45225;-39
2023/05/09 08:49:21;;;;;;;;;0.25;0.25;;;;;21.24;47.54;100826.44;4997091;28;45262;-40
2023/05/09 08:51:50;;;;;;;;;1.00;1.00;;;;;21.25;47.97;100822.03;4997301;28;45316;-39
2023/05/09 08:54:15;;;;;;;;;1.00;1.00;;;;;21.25;47.93;100822.03;4996446;28;47202;-39
2023/05/09 08:56:41;;;;;;;;;0.00;0.00;;;;;21.23;47.58;100819.47;4996984;28;45193;-39
2023/05/09 08:59:08;;;;;;;;;2.00;1.00;;;;;21.24;47.68;100820.34;4997066;28;45207;-39
2023/05/09 09:01:36;;;;;;;;;1.00;1.00;;;;;21.24;47.61;100810.63;4997439;28;45301;-39
2023/05/09 09:04:06;;;;;;;;;2.00;1.00;;;;;21.23;47.91;100808.09;4997033;28;45369;-39
2023/05/09 09:06:35;;;;;;;;;1.00;1.00;;;;;21.24;47.59;100804.53;4997115;28;45393;-40
2023/05/09 09:09:04;;;;;;;;;1.25;1.00;;;;;21.24;48.02;100809.81;4995819;28;45423;-39
2023/05/09 09:11:30;;;;;;;;;1.00;1.00;;;;;21.24;47.61;100805.38;4997009;28;45241;-39
2023/05/09 09:14:00;;;;;;;;;0.25;0.25;;;;;21.24;48.04;100792.19;4996662;28;46661;-39
2023/05/09 09:16:28;;;;;;;;;0.00;0.00;;;;;21.23;47.85;100803.66;4996516;28;45673;-39
2023/05/09 09:18:54;;;;;;;;;0.50;0.00;;;;;21.20;47.88;100795.97;4996805;28;45400;-39
2023/05/09 09:21:21;;;;;;;;;1.00;1.00;;;;;21.24;47.94;100796.63;4979437;28;45321;-38
2023/05/09 09:23:48;;;;;;;;;1.25;1.00;;;;;21.20;48.10;100784.56;4996697;28;45678;-39
2023/05/09 09:26:14;;;;;;;;;1.00;1.00;;;;;21.21;47.75;100789.75;4996368;28;45754;-39
2023/05/09 09:28:40;;;;;;;;;0.75;0.75;;;;;21.21;47.61;100795.03;4996671;28;45372;-39
2023/05/09 09:31:22;;;;;;;;;1.00;1.00;;;;;21.23;48.11;100798.41;4996994;28;45652;-39
2023/05/09 09:33:48;;;;;;;;;1.00;1.00;;;;;21.22;47.72;100787.94;4996441;28;46287;-40
2023/05/09 09:36:14;;;;;;;;;1.00;1.00;;;;;21.22;47.97;100801.13;4996523;28;45342;-40
2023/05/09 09:38:42;;;;;;;;;2.00;1.25;;;;;21.23;47.81;100797.56;4996450;28;45270;-40
2023/05/09 09:41:10;;;;;;;;;0.75;0.75;;;;;21.21;47.54;100797.66;4996616;28;45348;-40
2023/05/09 09:43:35;;;;;;;;;1.00;1.00;;;;;21.22;47.69;100799.31;4996353;28;46647;-40
2023/05/09 09:46:05;;;;;;;;;1.50;0.75;;;;;21.21;47.87;100788.88;4996216;28;45425;-40
2023/05/09 09:48:32;;;;;;;;;2.25;1.00;;;;;21.21;48.01;100792.38;4996416;28;45294;-40
2023/05/09 09:51:07;;;;;;;;;1.00;1.00;;;;;21.22;48.15;100795.84;4996521;28;45611;-39
2023/05/09 09:53:38;;;;;;;;;2.25;1.00;;;;;21.20;48.16;100798.59;4995730;28;45359;-39
2023/05/09 09:56:04;;;;;;;;;1.00;1.00;;;;;21.20;47.91;100788.06;4996485;28;45376;-39
2023/05/09 09:58:29;;;;;;;;;1.25;1.25;;;;;21.21;47.74;100789.75;4996346;28;45252;-40
2023/05/09 10:01:06;;;;;;;;;2.33;1.00;;;;;21.21;48.02;100789.75;4995835;28;51851;-39
2023/05/09 10:03:35;;;;;;;;;1.00;1.00;;;;;21.21;48.12;100789.75;4995996;28;46098;-40
2023/05/09 10:06:01;;;;;;;;;1.00;1.00;;;;;21.21;47.90;100783.63;4996092;28;45269;-39
2023/05/09 10:08:27;;;;;;;;;1.00;1.00;;;;;21.21;48.07;100773.06;4996244;28;45386;-40
2023/05/09 10:10:52;;;;;;;;;1.00;1.00;;;;;21.20;48.09;100774.00;4996273;28;45308;-39
2023/05/09 10:13:17;;;;;;;;;1.50;1.50;;;;;21.20;48.14;100772.25;4995795;28;46951;-37
2023/05/09 10:15:44;;;;;;;;;1.00;1.00;;;;;21.20;47.76;100759.06;4996113;28;45536;-39
2023/05/09 10:18:13;;;;;;;;;1.00;0.00;;;;;21.20;48.06;100759.06;4996434;28;45395;-38
2023/05/09 10:20:40;;;;;;;;;1.00;1.00;;;;;21.21;47.91;100757.25;4996584;28;45285;-38
2023/05/09 10:23:07;;;;;;;;;0.75;0.50;;;;;21.20;48.09;100761.69;4996085;28;46057;-38
2023/05/09 10:25:41;;;;;;;;;1.00;0.00;;;;;21.21;47.88;100750.22;4995744;28;45275;-38
2023/05/09 10:28:11;;;;;;;;;0.50;0.50;;;;;21.20;47.74;100745.88;4996343;28;45281;-38
2023/05/09 10:31:18;;;;;;;;;0.50;0.50;;;;;21.20;48.08;100743.25;4996422;28;45485;-38
2023/05/09 10:33:48;;;;;;;;;1.00;1.00;;;;;21.21;47.96;100742.31;4995991;28;45401;-38
2023/05/09 10:36:22;;;;;;;;;1.00;1.00;;;;;21.20;47.60;100734.47;4999120;28;45343;-38
2023/05/09 10:38:49;;;;;;;;;2.75;1.00;;;;;21.21;47.88;100737.03;4999063;28;45282;-39
2023/05/09 10:41:20;;;;;;;;;1.25;1.00;;;;;21.20;48.13;100734.47;4999499;28;45273;-39
2023/05/09 10:43:46;;;;;;;;;2.00;0.00;;;;;21.21;47.94;100736.19;4998809;28;45552;-39
2023/05/09 10:46:12;;;;;;;;;0.25;0.25;;;;;21.21;48.09;100733.53;4998838;28;45359;-39
2023/05/09 10:48:39;;;;;;;;;1.00;1.00;;;;;21.21;47.92;100731.78;4999387;28;45373;-38
2023/05/09 10:51:06;;;;;;;;;1.75;0.00;;;;;21.21;48.08;100731.78;4999109;28;45642;-38
2023/05/09 10:53:46;;;;;;;;;1.00;1.00;;;;;21.21;48.13;100729.13;4998678;28;46098;-39
2023/05/09 10:56:31;;;;;;;;;0.25;0.25;;;;;21.22;48.01;100727.31;4999050;28;45375;-39
2023/05/09 10:59:01;;;;;;;;;1.00;1.00;;;;;21.21;47.76;100725.63;4999085;28;45997;-39
2023/05/09 11:01:33;;;;;;;;;1.00;1.00;;;;;21.21;48.20;100721.22;4999115;28;45367;-39
2023/05/09 11:03:58;;;;;;;;;0.00;0.00;;;;;21.21;48.02;100720.34;4998513;28;46654;-40
2023/05/09 11:06:53;;;;;;;;;1.00;1.00;;;;;21.21;48.14;100718.59;4998484;28;45423;-39
2023/05/09 11:09:40;;;;;;;;;0.00;0.00;;;;;21.20;47.81;100714.25;4985790;28;45592;-39
2023/05/09 11:12:15;;;;;;;;;2.75;1.00;;;;;21.21;47.90;100709.81;4998781;28;45442;-42
2023/05/09 11:14:43;;;;;;;;;0.25;0.25;;;;;21.20;48.04;100711.63;4998807;28;46297;-39
2023/05/09 11:17:11;;;;;;;;;1.00;1.00;;;;;21.21;47.69;100705.41;4998816;28;45230;-40
2023/05/09 11:19:57;;;;;;;;;1.00;1.00;;;;;21.19;47.87;100702.00;4998554;28;45230;-40
2023/05/09 11:22:27;;;;;;;;;1.00;1.00;;;;;21.21;48.38;100700.13;4998620;28;45381;-39
2023/05/09 11:25:05;;;;;;;;;0.75;0.75;;;;;21.22;48.13;100698.34;4998524;28;46337;-39